Saint Albans, Vermont
Current Conditions -  °F | °C
As of 3:15 PM on Friday 19 Dec 2014 (Local Time) from KFSO Reporting Station
Overcast Overcast  
Wind Chill: 23°   Ceiling: 2500
Heat Index: 23°   Visibility: 10mi
Dew Point: 17°   Wind: 0mph
Humidity: 80%   Direction: NA
Pressure: 30.13"   Gusts: NA
Location:  44.81°N, 73.08°W
Report Text: KFSO 192015Z AUTO 00000KT 10SM SCT016 OVC025 M05/M08 A3013 RMK AO2 T10521081
Loading
Personal Weather Stations






























Interactive Weather Map New forecast layout! Learn more

10-Day Weather Forecast

Advertisements
Track Severe Weather on mobile